createdAt,value
2023-05-05T00:01:58.295Z,10.66
2023-05-05T00:04:43.337Z,10.63
2023-05-05T00:07:28.788Z,10.58
2023-05-05T00:10:13.499Z,10.44
2023-05-05T00:12:58.810Z,10.55
2023-05-05T00:15:45.847Z,10.48
2023-05-05T00:18:31.667Z,10.49
2023-05-05T00:21:16.593Z,10.41
2023-05-05T00:24:01.464Z,10.47
2023-05-05T00:26:46.247Z,10.46
2023-05-05T00:29:31.342Z,10.43
2023-05-05T00:32:16.499Z,10.39
2023-05-05T00:35:01.252Z,10.36
2023-05-05T00:37:46.288Z,10.20
2023-05-05T00:40:31.474Z,10.21
2023-05-05T00:43:16.334Z,10.33
2023-05-05T00:46:07.110Z,10.38
2023-05-05T00:48:52.653Z,10.24
2023-05-05T00:51:37.475Z,10.27
2023-05-05T00:54:22.860Z,10.25
2023-05-05T00:57:08.409Z,10.16
2023-05-05T00:59:54.680Z,10.23
2023-05-05T01:02:40.392Z,10.10
2023-05-05T01:05:27.686Z,10.10
2023-05-05T01:08:20.567Z,9.98
2023-05-05T01:11:14.598Z,9.97
2023-05-05T01:14:28.978Z,9.85
2023-05-05T01:17:18.467Z,9.95
2023-05-05T01:20:23.582Z,9.80
2023-05-05T01:23:12.693Z,9.98
2023-05-05T01:26:21.934Z,9.78
2023-05-05T01:29:31.286Z,9.91
2023-05-05T01:32:22.116Z,9.87
2023-05-05T01:35:37.223Z,9.80
2023-05-05T01:38:28.133Z,9.82
2023-05-05T01:41:19.544Z,9.93
2023-05-05T01:44:06.129Z,9.91
2023-05-05T01:46:52.503Z,9.89
2023-05-05T01:49:38.419Z,9.83
2023-05-05T01:52:24.117Z,9.80
2023-05-05T01:55:10.898Z,9.84
2023-05-05T01:57:58.587Z,9.99
2023-05-05T02:00:44.827Z,9.91
2023-05-05T02:03:33.898Z,9.78
2023-05-05T02:06:22.083Z,9.64
2023-05-05T02:09:11.997Z,9.67
2023-05-05T02:12:00.546Z,9.57
2023-05-05T02:14:46.949Z,9.90
2023-05-05T02:17:33.620Z,9.72
2023-05-05T02:20:19.824Z,9.65
2023-05-05T02:23:08.623Z,9.71
2023-05-05T02:25:57.355Z,9.62
2023-05-05T02:28:55.022Z,9.58
2023-05-05T02:31:47.247Z,9.53
2023-05-05T02:34:38.230Z,9.45
2023-05-05T02:37:27.292Z,9.36
2023-05-05T02:40:15.310Z,9.38
2023-05-05T02:43:06.060Z,9.22
2023-05-05T02:45:52.025Z,9.27
2023-05-05T02:48:37.240Z,9.31
2023-05-05T02:51:22.095Z,9.25
2023-05-05T02:54:07.204Z,9.26
2023-05-05T02:56:54.802Z,9.24
2023-05-05T02:59:56.486Z,9.25
2023-05-05T03:02:59.203Z,9.26
2023-05-05T03:06:00.913Z,9.25
2023-05-05T03:09:08.785Z,9.28
2023-05-05T03:12:02.004Z,9.24
2023-05-05T03:14:49.184Z,9.32
2023-05-05T03:17:34.896Z,9.27
2023-05-05T03:20:21.627Z,9.28
2023-05-05T03:23:07.172Z,9.34
2023-05-05T03:25:52.649Z,9.31
2023-05-05T03:28:37.691Z,9.25
2023-05-05T03:31:22.489Z,9.24
2023-05-05T03:34:08.710Z,9.21
2023-05-05T03:36:53.786Z,9.50
2023-05-05T03:39:39.165Z,9.43
2023-05-05T03:42:25.248Z,9.44
2023-05-05T03:45:10.892Z,9.64
2023-05-05T03:47:55.716Z,9.15
2023-05-05T03:50:40.546Z,9.28
2023-05-05T03:53:25.816Z,9.19
2023-05-05T03:56:10.683Z,9.15
2023-05-05T03:58:55.530Z,9.12
2023-05-05T04:01:40.239Z,9.06
2023-05-05T04:04:25.456Z,9.18
2023-05-05T04:07:11.096Z,9.08
2023-05-05T04:09:56.157Z,9.06
2023-05-05T04:12:41.242Z,9.08
2023-05-05T04:15:26.237Z,9.09
2023-05-05T04:18:11.403Z,9.20
2023-05-05T04:20:56.340Z,9.14
2023-05-05T04:23:41.263Z,9.10
2023-05-05T04:26:28.178Z,9.20
2023-05-05T04:29:13.375Z,9.23
2023-05-05T04:31:58.119Z,9.15
2023-05-05T04:34:43.755Z,9.20
2023-05-05T04:37:28.988Z,9.14
2023-05-05T04:40:13.791Z,9.19
2023-05-05T04:42:58.450Z,9.30
2023-05-05T04:45:52.848Z,9.33
2023-05-05T04:48:38.414Z,9.33
2023-05-05T04:51:23.833Z,9.26
2023-05-05T04:54:08.934Z,9.34
2023-05-05T04:56:54.491Z,9.26
2023-05-05T04:59:39.315Z,9.28
2023-05-05T05:02:24.223Z,9.32
2023-05-05T05:05:10.770Z,9.26
2023-05-05T05:07:55.767Z,9.28
2023-05-05T05:10:40.629Z,9.36
2023-05-05T05:13:25.721Z,9.38
2023-05-05T05:16:11.393Z,9.37
2023-05-05T05:18:57.017Z,9.27
2023-05-05T05:21:42.134Z,9.45
2023-05-05T05:24:27.107Z,9.45
2023-05-05T05:27:12.289Z,9.52
2023-05-05T05:29:57.369Z,9.54
2023-05-05T05:32:42.586Z,9.65
2023-05-05T05:35:27.926Z,9.74
2023-05-05T05:38:12.925Z,9.84
2023-05-05T05:40:58.668Z,9.90
2023-05-05T05:43:43.432Z,9.95
2023-05-05T05:46:28.686Z,10.00
2023-05-05T05:49:13.927Z,9.97
2023-05-05T05:51:58.682Z,10.05
2023-05-05T05:54:43.462Z,9.98
2023-05-05T05:57:28.450Z,9.94
2023-05-05T06:00:14.085Z,10.06
2023-05-05T06:02:59.037Z,9.99
2023-05-05T06:05:47.270Z,10.13
2023-05-05T06:08:34.301Z,10.16
2023-05-05T06:11:20.337Z,10.28
2023-05-05T06:14:05.549Z,10.35
2023-05-05T06:16:52.093Z,10.35
2023-05-05T06:19:39.667Z,10.62
2023-05-05T06:22:25.186Z,10.95
2023-05-05T06:25:11.158Z,11.21
2023-05-05T06:27:56.428Z,11.39
2023-05-05T06:30:42.407Z,11.49
2023-05-05T06:33:27.671Z,11.44
2023-05-05T06:36:12.592Z,11.53
2023-05-05T06:38:57.257Z,11.58
2023-05-05T06:41:42.145Z,11.71
2023-05-05T06:44:27.027Z,11.89
2023-05-05T06:47:11.933Z,12.17
2023-05-05T06:49:56.692Z,12.28
2023-05-05T06:52:43.661Z,12.41
2023-05-05T06:55:29.170Z,12.45
2023-05-05T06:58:14.122Z,12.59
2023-05-05T07:00:59.090Z,12.82
2023-05-05T07:03:44.632Z,12.90
2023-05-05T07:06:29.583Z,13.04
2023-05-05T07:09:16.894Z,13.24
2023-05-05T07:12:03.930Z,13.56
2023-05-05T07:14:49.050Z,13.74
2023-05-05T07:17:35.084Z,13.54
2023-05-05T07:20:19.846Z,13.15
2023-05-05T07:23:04.965Z,13.21
2023-05-05T07:25:50.943Z,13.63
2023-05-05T07:28:36.051Z,13.99
2023-05-05T07:31:21.905Z,14.39
2023-05-05T07:34:07.500Z,14.39
2023-05-05T07:36:52.499Z,14.72
2023-05-05T07:39:37.481Z,14.51
2023-05-05T07:42:22.383Z,14.49
2023-05-05T07:45:09.042Z,14.44
2023-05-05T07:47:54.902Z,14.81
2023-05-05T07:50:39.838Z,14.82
2023-05-05T07:53:24.595Z,14.87
2023-05-05T07:56:09.578Z,15.01
2023-05-05T07:58:54.879Z,15.24
2023-05-05T08:01:40.107Z,15.24
2023-05-05T08:04:25.355Z,15.37
2023-05-05T08:07:10.820Z,15.46
2023-05-05T08:09:56.634Z,15.28
2023-05-05T08:12:41.746Z,15.22
2023-05-05T08:15:26.572Z,15.25
2023-05-05T08:18:11.605Z,15.56
2023-05-05T08:20:56.869Z,15.84
2023-05-05T08:23:41.743Z,16.27
2023-05-05T08:26:26.523Z,16.41
2023-05-05T08:29:11.546Z,16.69
2023-05-05T08:31:56.495Z,16.68
2023-05-05T08:34:41.694Z,16.55
2023-05-05T08:37:26.881Z,16.64
2023-05-05T08:40:15.648Z,16.75
2023-05-05T08:43:01.716Z,16.87
2023-05-05T08:45:47.146Z,16.77
2023-05-05T08:48:33.630Z,16.94
2023-05-05T08:51:19.706Z,16.83
2023-05-05T08:54:06.896Z,16.60
2023-05-05T08:56:53.479Z,16.47
2023-05-05T08:59:38.989Z,16.61
2023-05-05T09:02:28.320Z,16.89
2023-05-05T09:05:14.011Z,17.53
2023-05-05T09:07:58.936Z,18.19
2023-05-05T09:10:44.568Z,18.18
2023-05-05T09:13:31.307Z,17.98
2023-05-05T09:16:16.284Z,17.91
2023-05-05T09:19:03.309Z,18.37
2023-05-05T09:21:51.110Z,18.05
2023-05-05T09:24:36.054Z,17.93
2023-05-05T09:27:22.904Z,18.22
2023-05-05T09:30:16.582Z,18.86
2023-05-05T09:33:03.215Z,18.92
2023-05-05T09:35:51.472Z,19.08
2023-05-05T09:38:37.124Z,19.56
2023-05-05T09:41:43.640Z,20.04
2023-05-05T09:44:39.916Z,19.85
2023-05-05T09:47:35.064Z,19.57
2023-05-05T09:50:22.041Z,19.30
2023-05-05T09:53:07.873Z,20.00
2023-05-05T09:55:54.168Z,20.07
2023-05-05T09:58:39.892Z,19.78
2023-05-05T10:01:25.146Z,20.03
2023-05-05T10:04:30.128Z,20.15
2023-05-05T10:07:24.879Z,20.07
2023-05-05T10:10:18.396Z,19.88
2023-05-05T10:13:03.348Z,20.28
2023-05-05T10:15:51.847Z,20.02
2023-05-05T10:18:41.326Z,20.08
2023-05-05T10:21:26.738Z,20.41
2023-05-05T10:24:34.163Z,20.52
2023-05-05T10:27:22.998Z,20.42
2023-05-05T10:30:13.608Z,20.32
2023-05-05T10:33:32.252Z,20.50
2023-05-05T10:36:19.860Z,20.46
2023-05-05T10:39:10.551Z,20.22
2023-05-05T10:41:59.395Z,20.21
2023-05-05T10:44:44.471Z,20.12
2023-05-05T10:47:30.593Z,20.50
2023-05-05T10:50:30.856Z,20.43
2023-05-05T10:53:23.948Z,20.28
2023-05-05T10:56:19.831Z,20.21
2023-05-05T10:59:37.312Z,20.32
2023-05-05T11:02:29.318Z,20.34
2023-05-05T11:05:21.652Z,20.44
2023-05-05T11:08:26.124Z,20.55
2023-05-05T11:11:13.450Z,20.60
2023-05-05T11:14:20.424Z,20.56
2023-05-05T11:17:05.712Z,20.44
2023-05-05T11:19:52.660Z,20.40
2023-05-05T11:22:56.673Z,20.31
2023-05-05T11:25:45.547Z,20.25
2023-05-05T11:28:32.733Z,20.23
2023-05-05T11:31:19.169Z,20.33
2023-05-05T11:34:28.144Z,20.43
2023-05-05T11:37:15.613Z,20.06
2023-05-05T11:40:07.452Z,20.03
2023-05-05T11:43:05.027Z,19.94
2023-05-05T11:46:09.040Z,19.86
2023-05-05T11:48:53.950Z,19.89
2023-05-05T11:51:39.144Z,20.11
2023-05-05T11:54:25.566Z,20.16
2023-05-05T11:57:11.758Z,20.08
2023-05-05T12:00:01.713Z,20.06
2023-05-05T12:02:46.925Z,20.01
2023-05-05T12:05:33.242Z,19.88
2023-05-05T12:08:20.173Z,19.97
2023-05-05T12:11:07.629Z,19.96
2023-05-05T12:14:08.382Z,19.87
2023-05-05T12:17:04.219Z,19.87
2023-05-05T12:19:54.430Z,20.01
2023-05-05T12:22:39.856Z,20.13
2023-05-05T12:25:26.839Z,20.22
2023-05-05T12:28:12.026Z,20.17
2023-05-05T12:30:58.698Z,20.20
2023-05-05T12:33:44.559Z,20.41
2023-05-05T12:36:30.729Z,20.56
2023-05-05T12:39:16.961Z,20.60
2023-05-05T12:42:03.288Z,20.50
2023-05-05T12:44:49.093Z,20.59
2023-05-05T12:47:35.515Z,20.86
2023-05-05T12:50:36.524Z,21.35
2023-05-05T12:53:23.269Z,21.60
2023-05-05T12:56:34.673Z,21.95
2023-05-05T12:59:22.811Z,21.97
2023-05-05T13:02:08.246Z,22.00
2023-05-05T13:04:54.286Z,21.72
2023-05-05T13:07:51.932Z,21.71
2023-05-05T13:10:37.165Z,21.51
2023-05-05T13:13:22.702Z,20.90
2023-05-05T13:16:07.501Z,21.00
2023-05-05T13:18:53.615Z,21.22
2023-05-05T13:21:38.441Z,20.91
2023-05-05T13:24:38.057Z,20.80
2023-05-05T13:27:28.084Z,20.79
2023-05-05T13:30:13.544Z,21.07
2023-05-05T13:32:59.420Z,20.92
2023-05-05T13:35:44.448Z,21.20
2023-05-05T13:38:29.547Z,21.34
2023-05-05T13:41:14.887Z,21.31
2023-05-05T13:43:59.628Z,21.19
2023-05-05T13:46:44.909Z,20.87
2023-05-05T13:49:29.942Z,20.74
2023-05-05T13:52:14.895Z,20.62
2023-05-05T13:55:00.594Z,20.45
2023-05-05T13:57:46.327Z,20.43
2023-05-05T14:00:31.583Z,20.44
2023-05-05T14:03:16.809Z,20.23
2023-05-05T14:06:01.976Z,20.20
2023-05-05T14:08:46.969Z,20.10
2023-05-05T14:11:31.795Z,20.01
2023-05-05T14:14:18.876Z,20.03
2023-05-05T14:17:03.902Z,19.99
2023-05-05T14:19:48.662Z,20.10
2023-05-05T14:22:33.863Z,19.91
2023-05-05T14:25:18.990Z,19.93
2023-05-05T14:28:04.548Z,19.87
2023-05-05T14:30:49.379Z,19.85
2023-05-05T14:33:34.171Z,19.80
2023-05-05T14:36:19.454Z,19.64
2023-05-05T14:39:04.894Z,19.65
2023-05-05T14:41:50.008Z,19.61
2023-05-05T14:44:34.870Z,19.76
2023-05-05T14:47:19.967Z,19.70
2023-05-05T14:50:07.431Z,19.72
2023-05-05T14:52:52.394Z,19.71
2023-05-05T14:55:37.430Z,19.70
2023-05-05T14:58:25.828Z,19.86
2023-05-05T15:01:11.342Z,19.84
2023-05-05T15:03:57.064Z,19.78
2023-05-05T15:06:42.114Z,19.75
2023-05-05T15:09:26.959Z,19.67
2023-05-05T15:12:11.776Z,19.71
2023-05-05T15:14:56.726Z,19.69
2023-05-05T15:17:41.845Z,19.63
2023-05-05T15:20:27.889Z,19.61
2023-05-05T15:23:12.946Z,19.60
2023-05-05T15:25:57.882Z,19.62
2023-05-05T15:28:42.892Z,19.51
2023-05-05T15:31:28.088Z,19.61
2023-05-05T15:34:13.266Z,19.56
2023-05-05T15:36:59.583Z,19.51
2023-05-05T15:39:44.436Z,19.50
2023-05-05T15:42:32.236Z,19.45
2023-05-05T15:45:17.004Z,19.39
2023-05-05T15:48:02.282Z,19.39
2023-05-05T15:50:47.351Z,19.52
2023-05-05T15:53:32.298Z,19.50
2023-05-05T15:56:17.298Z,19.57
2023-05-05T15:59:03.268Z,19.52
2023-05-05T16:01:49.627Z,19.51
2023-05-05T16:04:34.430Z,19.41
2023-05-05T16:07:19.624Z,19.32
2023-05-05T16:10:05.072Z,19.26
2023-05-05T16:12:52.015Z,19.24
2023-05-05T16:15:37.307Z,19.13
2023-05-05T16:18:22.368Z,19.07
2023-05-05T16:21:07.849Z,19.04
2023-05-05T16:23:53.027Z,18.99
2023-05-05T16:26:38.722Z,18.94
2023-05-05T16:29:23.987Z,18.91
2023-05-05T16:32:09.405Z,18.86
2023-05-05T16:34:54.997Z,18.82
2023-05-05T16:37:42.420Z,18.72
2023-05-05T16:40:27.266Z,18.69
2023-05-05T16:43:12.730Z,18.64
2023-05-05T16:45:57.583Z,18.62
2023-05-05T16:48:42.438Z,18.57
2023-05-05T16:51:28.888Z,18.52
2023-05-05T16:54:13.915Z,18.42
2023-05-05T16:56:58.797Z,18.37
2023-05-05T16:59:44.346Z,18.28
2023-05-05T17:02:31.248Z,18.35
2023-05-05T17:05:18.091Z,18.33
2023-05-05T17:08:03.776Z,18.24
2023-05-05T17:10:49.329Z,18.16
2023-05-05T17:13:34.158Z,18.02
2023-05-05T17:16:19.097Z,18.08
2023-05-05T17:19:04.204Z,17.99
2023-05-05T17:21:49.340Z,17.97
2023-05-05T17:24:34.686Z,17.96
2023-05-05T17:27:20.009Z,17.94
2023-05-05T17:30:05.490Z,17.89
2023-05-05T17:32:50.313Z,17.86
2023-05-05T17:35:35.283Z,17.68
2023-05-05T17:38:20.613Z,17.71
2023-05-05T17:41:06.286Z,17.53
2023-05-05T17:43:51.755Z,17.30
2023-05-05T17:46:37.801Z,17.18
2023-05-05T17:49:25.510Z,16.95
2023-05-05T17:52:11.109Z,16.86
2023-05-05T17:54:56.452Z,16.60
2023-05-05T17:57:41.786Z,16.50
2023-05-05T18:00:26.543Z,16.31
2023-05-05T18:03:11.654Z,16.07
2023-05-05T18:05:56.872Z,15.99
2023-05-05T18:08:44.473Z,15.85
2023-05-05T18:11:31.872Z,15.69
2023-05-05T18:14:19.898Z,15.64
2023-05-05T18:17:05.510Z,15.36
2023-05-05T18:19:50.573Z,15.36
2023-05-05T18:22:37.070Z,15.27
2023-05-05T18:25:22.145Z,15.20
2023-05-05T18:28:08.872Z,15.22
2023-05-05T18:30:56.558Z,15.03
2023-05-05T18:33:46.766Z,14.96
2023-05-05T18:36:34.027Z,14.93
2023-05-05T18:39:21.407Z,14.91
2023-05-05T18:42:08.006Z,14.72
2023-05-05T18:44:55.427Z,14.72
2023-05-05T18:47:41.326Z,14.64
2023-05-05T18:50:26.965Z,14.57
2023-05-05T18:53:14.980Z,14.54
2023-05-05T18:56:03.254Z,14.47
2023-05-05T18:58:48.048Z,14.18
2023-05-05T19:01:37.067Z,14.05
2023-05-05T19:04:30.770Z,14.00
2023-05-05T19:07:31.289Z,13.98
2023-05-05T19:10:20.485Z,14.00
2023-05-05T19:13:07.693Z,14.09
2023-05-05T19:15:54.547Z,14.01
2023-05-05T19:18:40.376Z,14.04
2023-05-05T19:21:27.544Z,13.91
2023-05-05T19:24:14.800Z,13.85
2023-05-05T19:27:03.512Z,13.93
2023-05-05T19:29:57.085Z,13.90
2023-05-05T19:32:42.530Z,14.03
2023-05-05T19:35:29.262Z,14.03
2023-05-05T19:38:14.880Z,14.05
2023-05-05T19:40:59.755Z,14.06
2023-05-05T19:43:50.842Z,14.06
2023-05-05T19:46:38.030Z,13.88
2023-05-05T19:49:23.487Z,13.79
2023-05-05T19:52:08.667Z,13.83
2023-05-05T19:54:53.584Z,13.77
2023-05-05T19:57:43.151Z,13.67
2023-05-05T20:00:30.906Z,13.58
2023-05-05T20:03:22.624Z,13.65
2023-05-05T20:06:07.709Z,13.71
2023-05-05T20:08:56.901Z,13.69
2023-05-05T20:11:42.291Z,13.66
2023-05-05T20:14:29.220Z,13.64
2023-05-05T20:17:17.270Z,13.58
2023-05-05T20:20:02.117Z,13.59
2023-05-05T20:22:49.555Z,13.49
2023-05-05T20:25:34.476Z,13.52
2023-05-05T20:28:20.583Z,13.34
2023-05-05T20:31:06.663Z,13.33
2023-05-05T20:33:51.532Z,13.39
2023-05-05T20:36:37.544Z,13.36
2023-05-05T20:39:23.963Z,13.27
2023-05-05T20:42:11.036Z,13.33
2023-05-05T20:44:56.232Z,13.39
2023-05-05T20:47:42.171Z,13.38
2023-05-05T20:50:28.399Z,13.36
2023-05-05T20:53:13.788Z,13.37
2023-05-05T20:55:58.811Z,13.28
2023-05-05T20:58:45.156Z,13.38
2023-05-05T21:01:31.169Z,13.30
2023-05-05T21:04:18.568Z,13.43
2023-05-05T21:07:03.617Z,13.49
2023-05-05T21:09:48.512Z,13.53
2023-05-05T21:12:34.055Z,13.55
2023-05-05T21:15:20.822Z,13.49
2023-05-05T21:18:06.197Z,13.43
2023-05-05T21:20:51.455Z,13.45
2023-05-05T21:23:36.465Z,13.36
2023-05-05T21:26:21.693Z,13.24
2023-05-05T21:29:06.883Z,13.20
2023-05-05T21:31:52.061Z,13.26
2023-05-05T21:34:38.383Z,13.29
2023-05-05T21:37:23.297Z,13.29
2023-05-05T21:40:14.111Z,13.29
2023-05-05T21:43:00.508Z,13.40
2023-05-05T21:45:47.079Z,13.42
2023-05-05T21:48:32.523Z,13.41
2023-05-05T21:51:17.947Z,13.41
2023-05-05T21:54:02.984Z,13.27
2023-05-05T21:56:49.503Z,13.26
2023-05-05T21:59:34.651Z,13.25
2023-05-05T22:02:19.944Z,13.29
2023-05-05T22:05:05.647Z,13.28
2023-05-05T22:07:50.535Z,13.18
2023-05-05T22:10:35.644Z,13.30
2023-05-05T22:13:20.798Z,13.29
2023-05-05T22:16:10.998Z,13.22
2023-05-05T22:18:56.024Z,13.27
2023-05-05T22:21:42.573Z,13.38
2023-05-05T22:24:28.256Z,13.39
2023-05-05T22:27:13.287Z,13.31
2023-05-05T22:29:58.564Z,13.37
2023-05-05T22:32:43.444Z,13.31
2023-05-05T22:35:28.413Z,13.55
2023-05-05T22:38:13.267Z,13.66
2023-05-05T22:40:58.122Z,13.69
2023-05-05T22:43:42.931Z,13.38
2023-05-05T22:46:27.931Z,13.24
2023-05-05T22:49:13.042Z,13.17
2023-05-05T22:51:58.590Z,13.03
2023-05-05T22:54:43.734Z,12.97
2023-05-05T22:57:28.669Z,12.95
2023-05-05T23:00:14.476Z,13.00
2023-05-05T23:02:59.651Z,12.83
2023-05-05T23:05:44.775Z,12.72
2023-05-05T23:08:30.055Z,12.67
2023-05-05T23:11:16.891Z,12.56
2023-05-05T23:14:01.728Z,12.40
2023-05-05T23:16:47.082Z,12.42
2023-05-05T23:19:32.600Z,12.37
2023-05-05T23:22:18.045Z,12.38
2023-05-05T23:25:03.154Z,12.37
2023-05-05T23:27:48.931Z,12.43
2023-05-05T23:30:34.165Z,12.31
2023-05-05T23:33:19.370Z,12.25
2023-05-05T23:36:05.016Z,12.28
2023-05-05T23:38:50.237Z,12.18
2023-05-05T23:41:35.205Z,12.10
2023-05-05T23:44:20.336Z,12.29
2023-05-05T23:47:05.252Z,12.28
2023-05-05T23:49:51.476Z,12.59
2023-05-05T23:52:36.620Z,12.51
2023-05-05T23:55:21.660Z,12.74
2023-05-05T23:58:06.948Z,13.27
